sim
Sign-in with your pilot id or email,
or register
Callsign
Passwort

Schedule Details

Flight Number: RYR1819
Departure: Eindhoven Airport (EHEH) at 18:40
Arrival: Thessaloniki International Airport (LGTS) at 21:30
Route: Ryanair Passenger Schedule. Enter filed route here before submitting Pirep.

Weather Information
Getting current METAR information for EHEH 252155Z AUTO 17005KT 140V210 9999 FEW089 BKN097 OVC100 11/08 Q1009 BLU 17005KT 9999 SCT040 BKN100
Getting current METAR information for LGTS 252150Z 00000KT CAVOK 15/12 Q1020 NOSIG

Schedule Frequency

Route Map